Time,TemperatureF,DewpointF,PressureIn,WindDirection,WindDirectionDegrees,WindSpeedMPH,WindSpeedGustMPH,Humidity,HourlyPrecipIn,Conditions,Clouds,dailyrainin,SolarRadiationWatts/m^2,SoftwareType,DateUTC
2013-03-24 00:03:00,28.4,26.9,30.16,North,9,5.0,13.0,94,0.00,,,0.00,239,Wunderground v.1.15,2013-03-24 05:03:00,
2013-03-24 00:09:00,28.2,26.7,30.16,NNW,338,6.0,7.0,94,0.00,,,0.00,239,Wunderground v.1.15,2013-03-24 05:09:00,
2013-03-24 00:15:00,28.0,26.5,30.16,NNW,329,7.0,9.0,94,0.00,,,0.00,236,Wunderground v.1.15,2013-03-24 05:15:00,
2013-03-24 00:21:00,27.9,26.4,30.16,NNW,344,6.0,7.0,94,0.00,,,0.00,239,Wunderground v.1.15,2013-03-24 05:21:00,
2013-03-24 00:27:00,27.9,26.4,30.15,NNW,337,5.0,15.0,94,0.00,,,0.00,237,Wunderground v.1.15,2013-03-24 05:27:00,
2013-03-24 00:33:00,27.7,25.9,30.15,NNW,333,6.0,9.0,93,0.00,,,0.00,232,Wunderground v.1.15,2013-03-24 05:33:00,
2013-03-24 00:39:00,27.5,25.7,30.15,NNW,342,7.0,7.0,93,0.00,,,0.00,230,Wunderground v.1.15,2013-03-24 05:39:00,
2013-03-24 00:45:00,27.3,25.8,30.15,North,10,7.0,7.0,94,0.00,,,0.00,223,Wunderground v.1.15,2013-03-24 05:45:00,
2013-03-24 00:51:00,27.3,25.8,30.15,North,355,6.0,6.0,94,0.00,,,0.00,229,Wunderground v.1.15,2013-03-24 05:51:00,
2013-03-24 00:57:00,27.1,25.6,30.15,NNW,344,6.0,6.0,94,0.00,,,0.00,229,Wunderground v.1.15,2013-03-24 05:57:00,
2013-03-24 01:03:00,27.0,25.5,30.14,NNW,334,7.0,14.0,94,0.00,,,0.00,225,Wunderground v.1.15,2013-03-24 06:03:00,
2013-03-24 01:09:00,26.9,25.4,30.14,NNW,346,8.0,8.0,94,0.00,,,0.00,223,Wunderground v.1.15,2013-03-24 06:09:00,
2013-03-24 01:15:00,26.8,25.3,30.14,NNW,333,7.0,8.0,94,0.00,,,0.00,227,Wunderground v.1.15,2013-03-24 06:15:00,
2013-03-24 01:21:00,26.8,25.3,30.14,NW,320,6.0,7.0,94,0.00,,,0.00,223,Wunderground v.1.15,2013-03-24 06:21:00,
2013-03-24 01:27:00,26.9,25.4,30.14,NNW,338,6.0,8.0,94,0.00,,,0.00,227,Wunderground v.1.15,2013-03-24 06:27:00,
2013-03-24 01:33:00,26.7,25.2,30.14,NNW,345,7.0,10.0,94,0.00,,,0.00,225,Wunderground v.1.15,2013-03-24 06:33:00,
2013-03-24 01:39:00,26.3,24.8,30.15,NNW,336,9.0,9.0,94,0.00,,,0.00,225,Wunderground v.1.15,2013-03-24 06:39:00,
2013-03-24 01:45:00,26.1,24.6,30.15,NW,317,9.0,9.0,94,0.00,,,0.00,220,Wunderground v.1.15,2013-03-24 06:45:00,
2013-03-24 01:53:00,25.9,24.4,30.15,NW,317,10.0,10.0,94,0.00,,,0.00,220,Wunderground v.1.15,2013-03-24 06:53:00,
2013-03-24 01:59:00,25.8,24.3,30.15,NNW,327,8.0,12.0,94,0.00,,,0.00,218,Wunderground v.1.15,2013-03-24 06:59:00,
2013-03-24 02:05:00,25.8,24.3,30.16,NNW,340,7.0,17.0,94,0.00,,,0.00,218,Wunderground v.1.15,2013-03-24 07:05:00,
2013-03-24 02:11:00,25.7,24.2,30.16,NW,304,7.0,15.0,94,0.00,,,0.00,218,Wunderground v.1.15,2013-03-24 07:11:00,
2013-03-24 02:17:00,25.8,24.3,30.17,NW,325,8.0,15.0,94,0.00,,,0.00,220,Wunderground v.1.15,2013-03-24 07:17:00,
2013-03-24 02:23:00,25.8,24.3,30.17,NNW,327,9.0,11.0,94,0.00,,,0.00,220,Wunderground v.1.15,2013-03-24 07:23:00,
2013-03-24 02:29:00,25.7,24.0,30.17,NNW,340,9.0,9.0,93,0.00,,,0.00,220,Wunderground v.1.15,2013-03-24 07:29:00,
2013-03-24 02:35:00,25.6,23.9,30.17,NW,323,10.0,14.0,93,0.00,,,0.00,218,Wunderground v.1.15,2013-03-24 07:35:00,
2013-03-24 02:41:00,25.4,23.7,30.17,NNW,348,11.0,11.0,93,0.00,,,0.00,218,Wunderground v.1.15,2013-03-24 07:41:00,
2013-03-24 02:47:00,25.4,23.7,30.17,North,351,10.0,11.0,93,0.00,,,0.00,218,Wunderground v.1.15,2013-03-24 07:47:00,
2013-03-24 02:53:00,25.2,23.5,30.17,NW,326,9.0,10.0,93,0.00,,,0.00,216,Wunderground v.1.15,2013-03-24 07:53:00,
2013-03-24 02:59:00,24.8,23.1,30.17,NW,322,11.0,11.0,93,0.00,,,0.00,216,Wunderground v.1.15,2013-03-24 07:59:00,
2013-03-24 03:05:00,24.5,22.8,30.17,NW,310,11.0,18.0,93,0.00,,,0.00,214,Wunderground v.1.15,2013-03-24 08:05:00,
2013-03-24 03:11:00,24.4,22.7,30.16,NW,306,11.0,11.0,93,0.00,,,0.00,214,Wunderground v.1.15,2013-03-24 08:11:00,
2013-03-24 03:17:00,24.2,22.5,30.16,NW,307,11.0,11.0,93,0.00,,,0.00,211,Wunderground v.1.15,2013-03-24 08:17:00,
2013-03-24 03:23:00,24.0,22.3,30.16,NW,306,11.0,16.0,93,0.00,,,0.00,209,Wunderground v.1.15,2013-03-24 08:23:00,
2013-03-24 03:29:00,23.7,22.0,30.16,NW,311,11.0,13.0,93,0.00,,,0.00,207,Wunderground v.1.15,2013-03-24 08:29:00,
2013-03-24 03:35:00,23.5,21.8,30.16,NW,321,11.0,15.0,93,0.00,,,0.00,209,Wunderground v.1.15,2013-03-24 08:35:00,
2013-03-24 03:43:00,23.5,21.8,30.16,NNW,336,10.0,12.0,93,0.00,,,0.00,211,Wunderground v.1.15,2013-03-24 08:43:00,
2013-03-24 03:49:00,23.5,21.8,30.15,NW,322,10.0,10.0,93,0.00,,,0.00,206,Wunderground v.1.15,2013-03-24 08:49:00,
2013-03-24 03:55:00,23.5,21.8,30.15,NW,315,9.0,10.0,93,0.00,,,0.00,207,Wunderground v.1.15,2013-03-24 08:55:00,
2013-03-24 04:03:00,23.4,21.7,30.16,NW,314,9.0,19.0,93,0.00,,,0.00,207,Wunderground v.1.15,2013-03-24 09:03:00,
2013-03-24 04:09:00,23.3,21.6,30.16,NW,323,10.0,10.0,93,0.00,,,0.00,207,Wunderground v.1.15,2013-03-24 09:09:00,
2013-03-24 04:15:00,23.0,21.3,30.16,NNW,345,11.0,14.0,93,0.00,,,0.00,206,Wunderground v.1.15,2013-03-24 09:15:00,
2013-03-24 04:23:00,22.9,20.9,30.16,NW,322,10.0,12.0,92,0.00,,,0.00,206,Wunderground v.1.15,2013-03-24 09:23:00,
2013-03-24 04:29:00,22.8,20.8,30.16,NW,326,10.0,12.0,92,0.00,,,0.00,202,Wunderground v.1.15,2013-03-24 09:29:00,
2013-03-24 04:35:00,22.8,20.8,30.16,NW,325,10.0,12.0,92,0.00,,,0.00,204,Wunderground v.1.15,2013-03-24 09:35:00,
2013-03-24 04:41:00,22.8,20.8,30.16,NW,324,10.0,11.0,92,0.00,,,0.00,206,Wunderground v.1.15,2013-03-24 09:41:00,
2013-03-24 04:47:00,22.7,20.5,30.16,WNW,300,10.0,11.0,91,0.00,,,0.00,207,Wunderground v.1.15,2013-03-24 09:47:00,
2013-03-24 04:53:00,22.6,20.6,30.16,NW,321,9.0,10.0,92,0.00,,,0.00,204,Wunderground v.1.15,2013-03-24 09:53:00,
2013-03-24 04:59:00,22.6,20.6,30.16,NNW,331,9.0,14.0,92,0.00,,,0.00,204,Wunderground v.1.15,2013-03-24 09:59:00,
2013-03-24 05:05:00,22.6,20.4,30.16,NNW,337,10.0,19.0,91,0.00,,,0.00,206,Wunderground v.1.15,2013-03-24 10:05:00,
2013-03-24 05:13:00,22.7,20.2,30.16,NW,319,10.0,14.0,90,0.00,,,0.00,206,Wunderground v.1.15,2013-03-24 10:13:00,
2013-03-24 05:19:00,22.8,20.3,29.26,NNW,336,10.0,10.0,90,0.00,,,0.00,206,Wunderground v.1.15,2013-03-24 10:19:00,
2013-03-24 05:25:00,22.9,20.4,30.16,NNW,328,10.0,12.0,90,0.00,,,0.00,211,Wunderground v.1.15,2013-03-24 10:25:00,
2013-03-24 05:32:00,22.9,20.4,30.16,NW,326,10.0,12.0,90,0.00,,,0.00,211,Wunderground v.1.15,2013-03-24 10:32:00,
2013-03-24 05:38:00,22.9,20.1,30.16,NW,317,10.0,12.0,89,0.00,,,0.00,209,Wunderground v.1.15,2013-03-24 10:38:00,
2013-03-24 05:43:00,22.9,20.1,30.15,North,355,10.0,10.0,89,0.00,,,0.00,211,Wunderground v.1.15,2013-03-24 10:43:00,
2013-03-24 05:49:00,22.9,20.1,30.16,NNW,334,9.0,14.0,89,0.00,,,0.00,209,Wunderground v.1.15,2013-03-24 10:49:00,
2013-03-24 05:55:00,22.8,20.0,30.16,NW,315,10.0,14.0,89,0.00,,,0.00,209,Wunderground v.1.15,2013-03-24 10:55:00,
2013-03-24 06:01:00,22.7,19.7,30.15,NW,317,12.0,12.0,88,0.00,,,0.00,209,Wunderground v.1.15,2013-03-24 11:01:00,
2013-03-24 06:07:00,22.6,19.6,30.16,NNW,327,11.0,18.0,88,0.00,,,0.00,207,Wunderground v.1.15,2013-03-24 11:07:00,
2013-03-24 06:13:00,22.5,19.5,30.15,NW,317,11.0,15.0,88,0.00,,,0.00,209,Wunderground v.1.15,2013-03-24 11:13:00,
2013-03-24 06:19:00,22.4,19.4,30.15,NW,325,11.0,13.0,88,0.00,,,0.00,207,Wunderground v.1.15,2013-03-24 11:19:00,
2013-03-24 06:25:00,22.3,19.0,30.15,North,350,11.0,13.0,87,0.00,,,0.00,207,Wunderground v.1.15,2013-03-24 11:25:00,
2013-03-24 06:31:00,22.3,19.0,30.16,NNW,328,12.0,14.0,87,0.00,,,0.00,206,Wunderground v.1.15,2013-03-24 11:31:00,
2013-03-24 06:37:00,22.1,19.1,30.16,NNW,348,11.0,14.0,88,0.00,,,0.00,202,Wunderground v.1.15,2013-03-24 11:37:00,
2013-03-24 06:43:00,22.0,18.7,30.16,NW,322,11.0,13.0,87,0.00,,,0.00,195,Wunderground v.1.15,2013-03-24 11:43:00,
2013-03-24 06:49:00,21.9,18.9,30.16,NNW,331,10.0,10.0,88,0.00,,,0.00,186,Wunderground v.1.15,2013-03-24 11:49:00,
2013-03-24 06:55:00,21.9,18.6,30.16,NW,319,11.0,14.0,87,0.00,,,0.00,172,Wunderground v.1.15,2013-03-24 11:55:00,
2013-03-24 07:01:00,21.8,18.5,30.16,NNW,338,12.0,20.0,87,0.00,,,0.00,158,Wunderground v.1.15,2013-03-24 12:01:00,
2013-03-24 07:07:00,21.8,18.5,30.16,NW,323,12.0,20.0,87,0.00,,,0.00,148,Wunderground v.1.15,2013-03-24 12:07:00,
2013-03-24 07:13:00,21.8,18.5,30.16,NW,311,12.0,13.0,87,0.00,,,0.00,139,Wunderground v.1.15,2013-03-24 12:13:00,
2013-03-24 07:19:00,21.8,18.5,30.16,NW,319,12.0,12.0,87,0.00,,,0.00,132,Wunderground v.1.15,2013-03-24 12:19:00,
2013-03-24 07:25:00,21.7,18.2,30.16,NW,323,11.0,12.0,86,0.00,,,0.00,127,Wunderground v.1.15,2013-03-24 12:25:00,
2013-03-24 07:31:00,21.6,18.3,30.16,NNW,327,11.0,11.0,87,0.00,,,0.00,121,Wunderground v.1.15,2013-03-24 12:31:00,
2013-03-24 07:37:00,21.4,17.9,30.16,NNW,338,11.0,11.0,86,0.00,,,0.00,116,Wunderground v.1.15,2013-03-24 12:37:00,
2013-03-24 07:43:00,21.3,18.0,30.17,WNW,300,12.0,13.0,87,0.00,,,0.00,113,Wunderground v.1.15,2013-03-24 12:43:00,
2013-03-24 07:49:00,21.2,17.9,30.17,NNW,329,12.0,13.0,87,0.00,,,0.00,107,Wunderground v.1.15,2013-03-24 12:49:00,
2013-03-24 07:55:00,21.2,17.9,30.17,NW,313,11.0,13.0,87,0.00,,,0.00,105,Wunderground v.1.15,2013-03-24 12:55:00,
2013-03-24 08:01:00,21.2,17.7,30.17,NNW,330,11.0,16.0,86,0.00,,,0.00,100,Wunderground v.1.15,2013-03-24 13:01:00,
2013-03-24 08:07:00,21.2,17.4,30.17,NW,322,12.0,19.0,85,0.00,,,0.00,98,Wunderground v.1.15,2013-03-24 13:07:00,
2013-03-24 08:13:00,21.1,17.0,30.17,NNW,327,13.0,13.0,84,0.00,,,0.00,95,Wunderground v.1.15,2013-03-24 13:13:00,
2013-03-24 08:19:00,21.1,16.7,30.17,NNW,327,12.0,16.0,83,0.00,,,0.00,91,Wunderground v.1.15,2013-03-24 13:19:00,
2013-03-24 08:25:00,21.1,16.5,30.17,NW,324,13.0,16.0,82,0.00,,,0.00,91,Wunderground v.1.15,2013-03-24 13:25:00,
2013-03-24 08:31:00,21.1,16.5,30.17,NW,321,12.0,13.0,82,0.00,,,0.00,90,Wunderground v.1.15,2013-03-24 13:31:00,
2013-03-24 08:37:00,20.9,16.0,30.17,NW,315,12.0,15.0,81,0.00,,,0.00,90,Wunderground v.1.15,2013-03-24 13:37:00,
2013-03-24 08:43:00,20.7,15.8,30.17,NW,305,12.0,12.0,81,0.00,,,0.00,90,Wunderground v.1.15,2013-03-24 13:43:00,
2013-03-24 08:49:00,20.6,15.4,30.18,NW,325,12.0,12.0,80,0.00,,,0.00,90,Wunderground v.1.15,2013-03-24 13:49:00,
2013-03-24 08:55:00,20.5,15.3,30.17,NW,309,12.0,14.0,80,0.00,,,0.00,88,Wunderground v.1.15,2013-03-24 13:55:00,
2013-03-24 09:01:00,20.5,15.0,29.28,NW,315,12.0,15.0,79,0.00,,,0.00,90,Wunderground v.1.15,2013-03-24 14:01:00,
2013-03-24 09:07:00,20.5,15.0,27.48,NW,326,12.0,19.0,79,0.00,,,0.00,88,Wunderground v.1.15,2013-03-24 14:07:00,
2013-03-24 09:13:00,20.5,15.0,23.87,NW,325,11.0,14.0,79,0.00,,,0.00,90,Wunderground v.1.15,2013-03-24 14:13:00,
2013-03-24 09:19:00,20.5,14.4,29.28,NW,312,12.0,12.0,77,0.00,,,0.00,90,Wunderground v.1.15,2013-03-24 14:19:00,
2013-03-24 09:25:00,20.6,14.5,29.28,NW,321,12.0,17.0,77,0.00,,,0.00,90,Wunderground v.1.15,2013-03-24 14:25:00,
2013-03-24 09:31:00,20.6,14.2,30.18,NW,314,12.0,14.0,76,0.00,,,0.00,90,Wunderground v.1.15,2013-03-24 14:31:00,
2013-03-24 09:37:00,20.6,14.2,30.18,NW,308,13.0,16.0,76,0.00,,,0.00,90,Wunderground v.1.15,2013-03-24 14:37:00,
2013-03-24 09:43:00,20.6,14.2,30.17,NW,317,13.0,16.0,76,0.00,,,0.00,90,Wunderground v.1.15,2013-03-24 14:43:00,
2013-03-24 09:49:00,20.6,14.2,30.18,NNW,333,12.0,13.0,76,0.00,,,0.00,90,Wunderground v.1.15,2013-03-24 14:49:00,
2013-03-24 09:55:00,20.7,14.0,30.17,NNW,327,11.0,14.0,75,0.00,,,0.00,90,Wunderground v.1.15,2013-03-24 14:55:00,
2013-03-24 10:01:00,20.8,14.1,30.17,NW,313,11.0,21.0,75,0.00,,,0.00,90,Wunderground v.1.15,2013-03-24 15:01:00,
2013-03-24 10:07:00,20.9,14.5,30.18,WNW,297,12.0,21.0,76,0.00,,,0.00,91,Wunderground v.1.15,2013-03-24 15:07:00,
2013-03-24 10:13:00,21.0,14.3,30.18,NNW,329,12.0,16.0,75,0.00,,,0.00,91,Wunderground v.1.15,2013-03-24 15:13:00,
2013-03-24 10:19:00,21.2,14.5,30.18,NW,326,13.0,14.0,75,0.00,,,0.00,90,Wunderground v.1.15,2013-03-24 15:19:00,
2013-03-24 10:25:00,21.4,14.7,30.18,NNW,327,13.0,14.0,75,0.00,,,0.00,91,Wunderground v.1.15,2013-03-24 15:25:00,
2013-03-24 10:31:00,21.7,14.7,28.38,NNW,338,12.0,13.0,74,0.00,,,0.00,91,Wunderground v.1.15,2013-03-24 15:31:00,
2013-03-24 10:37:00,22.1,15.1,30.18,NW,310,12.0,15.0,74,0.00,,,0.00,95,Wunderground v.1.15,2013-03-24 15:37:00,
2013-03-24 10:43:00,22.4,15.7,30.17,NW,319,13.0,17.0,75,0.00,,,0.00,97,Wunderground v.1.15,2013-03-24 15:43:00,
2013-03-24 10:49:00,22.5,15.1,30.18,NW,307,15.0,15.0,73,0.00,,,0.00,95,Wunderground v.1.15,2013-03-24 15:49:00,
2013-03-24 10:55:00,22.8,15.4,30.17,NW,317,15.0,17.0,73,0.00,,,0.00,97,Wunderground v.1.15,2013-03-24 15:55:00,
2013-03-24 11:03:00,23.3,15.9,30.17,NW,322,14.0,22.0,73,0.00,,,0.00,98,Wunderground v.1.15,2013-03-24 16:03:00,
2013-03-24 11:09:00,23.4,15.7,30.17,NW,326,15.0,16.0,72,0.00,,,0.00,98,Wunderground v.1.15,2013-03-24 16:09:00,
2013-03-24 11:15:00,23.5,15.8,30.17,NW,313,16.0,21.0,72,0.00,,,0.00,100,Wunderground v.1.15,2013-03-24 16:15:00,
2013-03-24 11:23:00,24.0,16.6,30.17,WNW,297,14.0,15.0,73,0.00,,,0.00,102,Wunderground v.1.15,2013-03-24 16:23:00,
2013-03-24 11:29:00,23.9,16.2,30.17,NNW,327,15.0,15.0,72,0.00,,,0.00,102,Wunderground v.1.15,2013-03-24 16:29:00,
2013-03-24 11:35:00,24.4,16.7,30.17,NNW,338,14.0,18.0,72,0.00,,,0.00,104,Wunderground v.1.15,2013-03-24 16:35:00,
2013-03-24 11:41:00,24.3,15.9,30.17,NW,323,15.0,15.0,70,0.00,,,0.00,104,Wunderground v.1.15,2013-03-24 16:41:00,
2013-03-24 11:47:00,24.2,16.5,20.10,NW,313,15.0,21.0,72,0.00,,,0.00,102,Wunderground v.1.15,2013-03-24 16:47:00,
2013-03-24 11:53:00,24.5,16.8,20.09,NW,323,15.0,16.0,72,0.00,,,0.00,104,Wunderground v.1.15,2013-03-24 16:53:00,
2013-03-24 11:59:00,24.4,16.0,20.09,NW,312,15.0,15.0,70,0.00,,,0.00,104,Wunderground v.1.15,2013-03-24 16:59:00,
2013-03-24 12:05:00,24.3,15.6,20.10,NNW,336,16.0,23.0,69,0.00,,,0.00,104,Wunderground v.1.15,2013-03-24 17:05:00,
2013-03-24 12:11:00,24.6,16.5,20.10,NW,323,16.0,16.0,71,0.00,,,0.00,104,Wunderground v.1.15,2013-03-24 17:11:00,
2013-03-24 12:17:00,24.8,16.4,25.58,NNW,339,14.0,19.0,70,0.00,,,0.00,105,Wunderground v.1.15,2013-03-24 17:17:00,
2013-03-24 12:22:00,24.8,16.4,20.10,NW,311,14.0,19.0,70,0.00,,,0.00,105,Wunderground v.1.15,2013-03-24 17:22:00,
2013-03-24 12:29:00,24.9,16.8,20.10,NW,317,15.0,15.0,71,0.00,,,0.00,105,Wunderground v.1.15,2013-03-24 17:29:00,
2013-03-24 12:35:00,25.2,17.1,20.09,NW,306,13.0,15.0,71,0.00,,,0.00,107,Wunderground v.1.15,2013-03-24 17:35:00,
2013-03-24 12:41:00,25.2,17.4,20.08,WNW,297,14.0,20.0,72,0.00,,,0.00,107,Wunderground v.1.15,2013-03-24 17:41:00,
2013-03-24 12:47:00,25.3,17.2,20.07,NW,311,15.0,20.0,71,0.00,,,0.00,107,Wunderground v.1.15,2013-03-24 17:47:00,
2013-03-24 12:53:00,25.4,17.0,20.05,WNW,293,16.0,22.0,70,0.00,,,0.00,107,Wunderground v.1.15,2013-03-24 17:53:00,
2013-03-24 12:59:00,25.9,17.8,20.01,WNW,299,16.0,22.0,71,0.00,,,0.00,109,Wunderground v.1.15,2013-03-24 17:59:00,
2013-03-24 13:05:00,26.1,18.3,31.14,NNW,337,14.0,26.0,72,0.00,,,0.00,111,Wunderground v.1.15,2013-03-24 18:05:00,
2013-03-24 13:11:00,26.2,17.7,31.14,NW,323,14.0,14.0,70,0.00,,,0.00,111,Wunderground v.1.15,2013-03-24 18:11:00,
2013-03-24 13:17:00,26.4,18.3,31.14,NW,325,16.0,17.0,71,0.00,,,0.00,111,Wunderground v.1.15,2013-03-24 18:17:00,
2013-03-24 13:23:00,26.4,17.6,31.14,NW,322,15.0,15.0,69,0.00,,,0.00,113,Wunderground v.1.15,2013-03-24 18:23:00,
2013-03-24 13:29:00,26.5,18.0,31.15,NW,304,14.0,14.0,70,0.00,,,0.00,113,Wunderground v.1.15,2013-03-24 18:29:00,
2013-03-24 13:35:00,26.3,17.5,31.16,NW,304,15.0,18.0,69,0.00,,,0.00,113,Wunderground v.1.15,2013-03-24 18:35:00,
2013-03-24 13:43:00,26.6,18.1,31.16,NW,317,16.0,19.0,70,0.00,,,0.00,113,Wunderground v.1.15,2013-03-24 18:43:00,
2013-03-24 13:49:00,26.4,18.3,31.16,WNW,299,17.0,24.0,71,0.00,,,0.00,113,Wunderground v.1.15,2013-03-24 18:49:00,
2013-03-24 13:55:00,26.7,18.6,31.08,WNW,298,18.0,24.0,71,0.00,,,0.00,111,Wunderground v.1.15,2013-03-24 18:55:00,
2013-03-24 14:03:00,26.9,18.4,31.08,NNW,332,16.0,25.0,70,0.00,,,0.00,113,Wunderground v.1.15,2013-03-24 19:03:00,
2013-03-24 14:09:00,27.2,18.7,32.37,WNW,300,14.0,18.0,70,0.00,,,0.00,114,Wunderground v.1.15,2013-03-24 19:09:00,
2013-03-24 14:15:00,27.3,18.8,31.05,NW,323,14.0,18.0,70,0.00,,,0.00,116,Wunderground v.1.15,2013-03-24 19:15:00,
2013-03-24 14:21:00,27.4,18.9,31.06,WNW,300,16.0,22.0,70,0.00,,,0.00,116,Wunderground v.1.15,2013-03-24 19:21:00,
2013-03-24 14:27:00,27.4,19.6,31.07,NW,311,15.0,22.0,72,0.00,,,0.00,116,Wunderground v.1.15,2013-03-24 19:27:00,
2013-03-24 14:33:00,27.2,18.4,31.08,WNW,302,15.0,19.0,69,0.00,,,0.00,114,Wunderground v.1.15,2013-03-24 19:33:00,
2013-03-24 14:39:00,27.6,19.1,31.09,NNW,327,14.0,14.0,70,0.00,,,0.00,116,Wunderground v.1.15,2013-03-24 19:39:00,
2013-03-24 14:45:00,28.1,19.6,31.09,NW,314,13.0,18.0,70,0.00,,,0.00,120,Wunderground v.1.15,2013-03-24 19:45:00,
2013-03-24 14:51:00,27.6,18.8,31.09,NW,311,15.0,15.0,69,0.00,,,0.00,118,Wunderground v.1.15,2013-03-24 19:51:00,
2013-03-24 14:57:00,27.8,19.3,31.09,NW,304,14.0,15.0,70,0.00,,,0.00,116,Wunderground v.1.15,2013-03-24 19:57:00,
2013-03-24 15:03:00,28.3,20.1,31.09,NNW,335,14.0,27.0,71,0.00,,,0.00,120,Wunderground v.1.15,2013-03-24 20:03:00,
2013-03-24 15:09:00,28.4,20.2,31.09,NW,322,16.0,16.0,71,0.00,,,0.00,121,Wunderground v.1.15,2013-03-24 20:09:00,
2013-03-24 15:15:00,28.0,19.5,31.06,NNW,329,16.0,20.0,70,0.00,,,0.00,118,Wunderground v.1.15,2013-03-24 20:15:00,
2013-03-24 15:23:00,28.5,20.9,31.06,NW,311,16.0,18.0,73,0.00,,,0.00,118,Wunderground v.1.15,2013-03-24 20:23:00,
2013-03-24 15:29:00,28.6,19.7,31.01,NW,320,17.0,19.0,69,0.00,,,0.00,121,Wunderground v.1.15,2013-03-24 20:29:00,
2013-03-24 15:35:00,28.8,19.2,31.01,NW,315,17.0,19.0,67,0.00,,,0.00,123,Wunderground v.1.15,2013-03-24 20:35:00,
2013-03-24 15:41:00,28.8,19.9,29.62,NW,307,17.0,19.0,69,0.00,,,0.00,121,Wunderground v.1.15,2013-03-24 20:41:00,
2013-03-24 15:47:00,28.2,19.3,29.62,NW,306,16.0,19.0,69,0.00,,,0.00,120,Wunderground v.1.15,2013-03-24 20:47:00,
2013-03-24 15:53:00,28.0,18.8,29.62,WNW,303,16.0,19.0,68,0.00,,,0.00,120,Wunderground v.1.15,2013-03-24 20:53:00,
2013-03-24 15:59:00,27.8,18.9,29.62,NW,310,17.0,17.0,69,0.00,,,0.00,116,Wunderground v.1.15,2013-03-24 20:59:00,
2013-03-24 16:05:00,27.9,18.7,31.06,NW,323,17.0,25.0,68,0.00,,,0.00,116,Wunderground v.1.15,2013-03-24 21:05:00,
2013-03-24 16:11:00,28.1,19.2,31.07,NNW,336,15.0,18.0,69,0.00,,,0.00,118,Wunderground v.1.15,2013-03-24 21:11:00,
2013-03-24 16:17:00,28.4,19.2,31.08,WNW,299,15.0,18.0,68,0.00,,,0.00,120,Wunderground v.1.15,2013-03-24 21:17:00,
2013-03-24 16:23:00,28.0,20.1,31.08,NW,304,16.0,16.0,72,0.00,,,0.00,116,Wunderground v.1.15,2013-03-24 21:23:00,
2013-03-24 16:29:00,27.9,18.4,31.08,NNW,330,17.0,17.0,67,0.00,,,0.00,118,Wunderground v.1.15,2013-03-24 21:29:00,
2013-03-24 16:35:00,27.9,18.7,31.10,NW,318,16.0,17.0,68,0.00,,,0.00,116,Wunderground v.1.15,2013-03-24 21:35:00,
2013-03-24 16:41:00,27.9,18.7,31.10,WNW,299,15.0,16.0,68,0.00,,,0.00,116,Wunderground v.1.15,2013-03-24 21:41:00,
2013-03-24 16:47:00,29.1,19.8,31.11,WNW,302,16.0,18.0,68,0.00,,,0.00,121,Wunderground v.1.15,2013-03-24 21:47:00,
2013-03-24 16:53:00,28.5,19.3,31.11,NW,306,18.0,20.0,68,0.00,,,0.00,120,Wunderground v.1.15,2013-03-24 21:53:00,
2013-03-24 16:59:00,28.4,18.8,31.11,NW,308,17.0,17.0,67,0.00,,,0.00,118,Wunderground v.1.15,2013-03-24 21:59:00,
2013-03-24 17:05:00,28.3,18.7,27.55,WNW,295,18.0,28.0,67,0.00,,,0.00,118,Wunderground v.1.15,2013-03-24 22:05:00,
2013-03-24 17:13:00,28.6,19.4,27.55,NW,317,17.0,18.0,68,0.00,,,0.00,120,Wunderground v.1.15,2013-03-24 22:13:00,
2013-03-24 17:19:00,28.3,18.7,31.15,NW,304,17.0,17.0,67,0.00,,,0.00,116,Wunderground v.1.15,2013-03-24 22:19:00,
2013-03-24 17:25:00,28.1,18.9,31.15,NW,314,15.0,17.0,68,0.00,,,0.00,116,Wunderground v.1.15,2013-03-24 22:25:00,
2013-03-24 17:31:00,28.0,18.8,31.40,NW,316,13.0,15.0,68,0.00,,,0.00,116,Wunderground v.1.15,2013-03-24 22:31:00,
2013-03-24 17:37:00,27.9,19.0,23.76,NW,309,14.0,15.0,69,0.00,,,0.00,114,Wunderground v.1.15,2013-03-24 22:37:00,
2013-03-24 17:43:00,27.9,19.4,31.18,NW,309,13.0,15.0,70,0.00,,,0.00,116,Wunderground v.1.15,2013-03-24 22:43:00,
2013-03-24 17:49:00,27.5,18.3,31.18,NW,319,13.0,14.0,68,0.00,,,0.00,114,Wunderground v.1.15,2013-03-24 22:49:00,
2013-03-24 17:55:00,27.6,19.1,19.98,WNW,291,13.0,16.0,70,0.00,,,0.00,113,Wunderground v.1.15,2013-03-24 22:55:00,
2013-03-24 18:03:00,27.4,18.9,23.80,NNW,329,14.0,30.0,70,0.00,,,0.00,113,Wunderground v.1.15,2013-03-24 23:03:00,
2013-03-24 18:09:00,27.8,19.3,21.90,NW,309,14.0,18.0,70,0.00,,,0.00,114,Wunderground v.1.15,2013-03-24 23:09:00,
2013-03-24 18:15:00,27.7,18.8,20.00,WNW,286,15.0,18.0,69,0.00,,,0.00,116,Wunderground v.1.15,2013-03-24 23:15:00,
2013-03-24 18:21:00,27.6,18.8,31.22,NW,311,16.0,21.0,69,0.00,,,0.00,116,Wunderground v.1.15,2013-03-24 23:21:00,
2013-03-24 18:27:00,27.8,18.9,20.02,NW,319,15.0,21.0,69,0.00,,,0.00,118,Wunderground v.1.15,2013-03-24 23:27:00,
2013-03-24 18:33:00,27.8,19.3,20.02,NW,309,15.0,19.0,70,0.00,,,0.00,114,Wunderground v.1.15,2013-03-24 23:33:00,
2013-03-24 18:39:00,27.4,18.9,20.03,NW,325,15.0,15.0,70,0.00,,,0.00,113,Wunderground v.1.15,2013-03-24 23:39:00,
2013-03-24 18:45:00,27.1,19.3,20.04,NW,315,13.0,17.0,72,0.00,,,0.00,111,Wunderground v.1.15,2013-03-24 23:45:00,
2013-03-24 18:51:00,27.0,18.8,20.04,WNW,298,13.0,16.0,71,0.00,,,0.00,113,Wunderground v.1.15,2013-03-24 23:51:00,
2013-03-24 18:57:00,26.7,17.9,20.05,WNW,299,15.0,16.0,69,0.00,,,0.00,113,Wunderground v.1.15,2013-03-24 23:57:00,
2013-03-24 19:03:00,26.2,18.7,20.06,NW,314,13.0,27.0,73,0.00,,,0.00,113,Wunderground v.1.15,2013-03-25 00:03:00,
2013-03-24 19:09:00,26.0,18.8,20.06,NW,319,11.0,11.0,74,0.00,,,0.00,107,Wunderground v.1.15,2013-03-25 00:09:00,
2013-03-24 19:15:00,26.0,18.8,20.07,NNW,329,10.0,15.0,74,0.00,,,0.00,118,Wunderground v.1.15,2013-03-25 00:15:00,
2013-03-24 19:21:00,25.6,18.8,20.08,NW,307,12.0,13.0,75,0.00,,,0.00,116,Wunderground v.1.15,2013-03-25 00:21:00,
2013-03-24 19:27:00,25.6,18.1,20.09,NNW,331,13.0,15.0,73,0.00,,,0.00,120,Wunderground v.1.15,2013-03-25 00:27:00,
2013-03-24 19:33:00,25.5,17.7,20.09,NW,316,12.0,13.0,72,0.00,,,0.00,123,Wunderground v.1.15,2013-03-25 00:33:00,
2013-03-24 19:39:00,25.1,17.7,20.09,NW,319,13.0,15.0,73,0.00,,,0.00,125,Wunderground v.1.15,2013-03-25 00:39:00,
2013-03-24 19:45:00,24.9,17.5,20.11,WNW,302,14.0,15.0,73,0.00,,,0.00,130,Wunderground v.1.15,2013-03-25 00:45:00,
2013-03-24 19:51:00,24.9,17.5,20.12,NW,307,14.0,15.0,73,0.00,,,0.00,134,Wunderground v.1.15,2013-03-25 00:51:00,
2013-03-24 19:57:00,24.8,18.0,20.13,NW,313,13.0,15.0,75,0.00,,,0.00,142,Wunderground v.1.15,2013-03-25 00:57:00,
2013-03-24 20:03:00,24.6,17.8,20.13,NW,317,11.0,24.0,75,0.00,,,0.00,148,Wunderground v.1.15,2013-03-25 01:03:00,
2013-03-24 20:09:00,24.4,17.6,20.13,NNW,327,10.0,11.0,75,0.00,,,0.00,156,Wunderground v.1.15,2013-03-25 01:09:00,
2013-03-24 20:15:00,24.3,17.2,20.13,NW,323,9.0,12.0,74,0.00,,,0.00,169,Wunderground v.1.15,2013-03-25 01:15:00,
2013-03-24 20:21:00,24.3,17.8,20.13,NW,307,9.0,11.0,76,0.00,,,0.00,179,Wunderground v.1.15,2013-03-25 01:21:00,
2013-03-24 20:27:00,24.4,17.6,20.13,NW,325,10.0,11.0,75,0.00,,,0.00,188,Wunderground v.1.15,2013-03-25 01:27:00,
2013-03-24 20:33:00,24.3,17.8,20.17,NNW,331,10.0,10.0,76,0.00,,,0.00,195,Wunderground v.1.15,2013-03-25 01:33:00,
2013-03-24 20:39:00,24.3,17.5,20.17,NW,313,11.0,13.0,75,0.00,,,0.00,195,Wunderground v.1.15,2013-03-25 01:39:00,
2013-03-24 20:45:00,24.0,17.2,20.17,NW,311,11.0,13.0,75,0.00,,,0.00,193,Wunderground v.1.15,2013-03-25 01:45:00,
2013-03-24 20:53:00,24.0,17.5,17.63,NW,321,11.0,12.0,76,0.00,,,0.00,199,Wunderground v.1.15,2013-03-25 01:53:00,
2013-03-24 20:59:00,23.9,17.4,17.63,NNW,329,11.0,11.0,76,0.00,,,0.00,193,Wunderground v.1.15,2013-03-25 01:59:00,
2013-03-24 21:05:00,24.0,17.5,17.63,WNW,284,11.0,22.0,76,0.00,,,0.00,197,Wunderground v.1.15,2013-03-25 02:05:00,
2013-03-24 21:11:00,24.2,17.7,17.63,NW,314,11.0,15.0,76,0.00,,,0.00,199,Wunderground v.1.15,2013-03-25 02:11:00,
2013-03-24 21:17:00,24.4,17.9,17.63,WNW,302,11.0,15.0,76,0.00,,,0.00,200,Wunderground v.1.15,2013-03-25 02:17:00,
2013-03-24 21:23:00,24.4,18.2,17.63,WNW,298,10.0,15.0,77,0.00,,,0.00,202,Wunderground v.1.15,2013-03-25 02:23:00,
2013-03-24 21:29:00,24.5,18.0,17.63,NW,311,11.0,12.0,76,0.00,,,0.00,200,Wunderground v.1.15,2013-03-25 02:29:00,
2013-03-24 21:35:00,24.4,18.2,17.63,NW,305,12.0,16.0,77,0.00,,,0.00,202,Wunderground v.1.15,2013-03-25 02:35:00,
2013-03-24 21:41:00,24.4,17.9,17.63,NW,311,13.0,13.0,76,0.00,,,0.00,202,Wunderground v.1.15,2013-03-25 02:41:00,
2013-03-24 21:47:00,24.5,18.3,17.63,WNW,298,12.0,14.0,77,0.00,,,0.00,200,Wunderground v.1.15,2013-03-25 02:47:00,
2013-03-24 21:53:00,24.6,18.1,28.37,NW,307,13.0,15.0,76,0.00,,,0.00,197,Wunderground v.1.15,2013-03-25 02:53:00,
2013-03-24 21:59:00,24.6,18.1,28.37,NW,309,14.0,14.0,76,0.00,,,0.00,202,Wunderground v.1.15,2013-03-25 02:59:00,
2013-03-24 22:05:00,24.5,18.0,30.22,NW,309,13.0,18.0,76,0.00,,,0.00,204,Wunderground v.1.15,2013-03-25 03:05:00,
2013-03-24 22:11:00,24.5,18.0,30.22,NW,304,12.0,14.0,76,0.00,,,0.00,199,Wunderground v.1.15,2013-03-25 03:11:00,
2013-03-24 22:17:00,24.4,18.2,30.22,NW,313,12.0,15.0,77,0.00,,,0.00,202,Wunderground v.1.15,2013-03-25 03:17:00,
2013-03-24 22:23:00,24.3,18.1,30.22,NW,311,11.0,16.0,77,0.00,,,0.00,199,Wunderground v.1.15,2013-03-25 03:23:00,
2013-03-24 22:29:00,24.0,18.1,23.78,WNW,298,12.0,12.0,78,0.00,,,0.00,197,Wunderground v.1.15,2013-03-25 03:29:00,
2013-03-24 22:35:00,23.8,17.9,23.78,WNW,294,11.0,13.0,78,0.00,,,0.00,193,Wunderground v.1.15,2013-03-25 03:35:00,
2013-03-24 22:41:00,23.6,18.0,30.79,NW,310,10.0,11.0,79,0.00,,,0.00,190,Wunderground v.1.15,2013-03-25 03:41:00,
2013-03-24 22:47:00,23.3,18.0,30.79,NW,313,10.0,13.0,80,0.00,,,0.00,190,Wunderground v.1.15,2013-03-25 03:47:00,
2013-03-24 22:53:00,23.2,18.2,30.79,NW,306,11.0,11.0,81,0.00,,,0.00,188,Wunderground v.1.15,2013-03-25 03:53:00,
2013-03-24 22:59:00,23.0,18.3,30.22,NW,304,10.0,12.0,82,0.00,,,0.00,186,Wunderground v.1.15,2013-03-25 03:59:00,
2013-03-24 23:01:00,22.9,18.2,30.22,WNW,293,10.0,21.0,82,0.00,,,0.00,186,Wunderground v.1.15,2013-03-25 04:01:00,
2013-03-24 23:07:00,22.7,18.3,30.22,WNW,303,10.0,21.0,83,0.00,,,0.00,185,Wunderground v.1.15,2013-03-25 04:07:00,
2013-03-24 23:09:00,22.6,18.2,30.22,West,279,9.0,9.0,83,0.00,,,0.00,181,Wunderground v.1.15,2013-03-25 04:09:00,
2013-03-24 23:12:00,22.6,18.2,30.22,WNW,298,9.0,10.0,83,0.00,,,0.00,188,Wunderground v.1.15,2013-03-25 04:12:00,
2013-03-24 23:19:00,22.8,18.7,30.22,WNW,303,10.0,10.0,84,0.00,,,0.00,188,Wunderground v.1.15,2013-03-25 04:19:00,
2013-03-24 23:25:00,23.0,18.9,30.22,WNW,285,11.0,12.0,84,0.00,,,0.00,190,Wunderground v.1.15,2013-03-25 04:25:00,
2013-03-24 23:31:00,23.1,19.0,30.22,WNW,296,11.0,11.0,84,0.00,,,0.00,186,Wunderground v.1.15,2013-03-25 04:31:00,
2013-03-24 23:37:00,22.9,18.8,30.22,WNW,299,11.0,13.0,84,0.00,,,0.00,188,Wunderground v.1.15,2013-03-25 04:37:00,
2013-03-24 23:43:00,23.1,19.3,30.22,WNW,299,11.0,15.0,85,0.00,,,0.00,192,Wunderground v.1.15,2013-03-25 04:43:00,
2013-03-24 23:49:00,23.3,19.5,30.22,WNW,284,11.0,11.0,85,0.00,,,0.00,192,Wunderground v.1.15,2013-03-25 04:49:00,
2013-03-24 23:55:00,23.4,19.3,30.22,NW,306,12.0,15.0,84,0.00,,,0.00,197,Wunderground v.1.15,2013-03-25 04:55:00,